sensor_id;sensor_type;location;lat;lon;timestamp;P1;durP1;ratioP1;P2;durP2;ratioP2
583;SDS011;27024;54.068;12.116;2023-03-14T00:01:29;3.55;;;1.42;;
583;SDS011;27024;54.068;12.116;2023-03-14T00:03:56;4.65;;;1.50;;
583;SDS011;27024;54.068;12.116;2023-03-14T00:06:23;2.70;;;1.30;;
583;SDS011;27024;54.068;12.116;2023-03-14T00:08:50;2.60;;;1.05;;
583;SDS011;27024;54.068;12.116;2023-03-14T00:11:19;3.47;;;1.30;;
583;SDS011;27024;54.068;12.116;2023-03-14T00:13:47;3.28;;;1.33;;
583;SDS011;27024;54.068;12.116;2023-03-14T00:16:18;3.35;;;1.38;;
583;SDS011;27024;54.068;12.116;2023-03-14T00:18:46;2.55;;;1.20;;
583;SDS011;27024;54.068;12.116;2023-03-14T00:21:13;4.82;;;1.33;;
583;SDS011;27024;54.068;12.116;2023-03-14T00:23:41;4.72;;;1.58;;
583;SDS011;27024;54.068;12.116;2023-03-14T00:26:12;3.60;;;1.58;;
583;SDS011;27024;54.068;12.116;2023-03-14T00:28:40;3.03;;;1.30;;
583;SDS011;27024;54.068;12.116;2023-03-14T00:31:09;3.28;;;1.20;;
583;SDS011;27024;54.068;12.116;2023-03-14T00:33:37;3.28;;;1.42;;
583;SDS011;27024;54.068;12.116;2023-03-14T00:36:05;3.05;;;1.40;;
583;SDS011;27024;54.068;12.116;2023-03-14T00:38:35;4.13;;;1.20;;
583;SDS011;27024;54.068;12.116;2023-03-14T00:41:06;2.70;;;1.27;;
583;SDS011;27024;54.068;12.116;2023-03-14T00:43:35;4.07;;;1.30;;
583;SDS011;27024;54.068;12.116;2023-03-14T00:46:02;2.33;;;1.10;;
583;SDS011;27024;54.068;12.116;2023-03-14T00:48:29;3.53;;;1.60;;
583;SDS011;27024;54.068;12.116;2023-03-14T00:50:56;3.55;;;1.30;;
583;SDS011;27024;54.068;12.116;2023-03-14T00:53:23;3.35;;;1.33;;
583;SDS011;27024;54.068;12.116;2023-03-14T00:55:50;3.60;;;1.08;;
583;SDS011;27024;54.068;12.116;2023-03-14T00:58:17;4.35;;;1.50;;
583;SDS011;27024;54.068;12.116;2023-03-14T01:00:45;3.60;;;1.20;;
583;SDS011;27024;54.068;12.116;2023-03-14T01:03:12;4.38;;;1.15;;
583;SDS011;27024;54.068;12.116;2023-03-14T01:05:40;4.28;;;1.20;;
583;SDS011;27024;54.068;12.116;2023-03-14T01:08:07;2.53;;;1.48;;
583;SDS011;27024;54.068;12.116;2023-03-14T01:10:37;5.72;;;1.65;;
583;SDS011;27024;54.068;12.116;2023-03-14T01:13:06;4.20;;;1.17;;
583;SDS011;27024;54.068;12.116;2023-03-14T01:15:34;4.03;;;1.33;;
583;SDS011;27024;54.068;12.116;2023-03-14T01:18:01;4.68;;;1.15;;
583;SDS011;27024;54.068;12.116;2023-03-14T01:20:28;3.45;;;1.20;;
583;SDS011;27024;54.068;12.116;2023-03-14T01:22:55;5.50;;;1.70;;
583;SDS011;27024;54.068;12.116;2023-03-14T01:25:22;2.15;;;1.10;;
583;SDS011;27024;54.068;12.116;2023-03-14T01:27:49;3.55;;;1.38;;
583;SDS011;27024;54.068;12.116;2023-03-14T01:30:16;7.68;;;1.65;;
583;SDS011;27024;54.068;12.116;2023-03-14T01:32:42;2.63;;;1.02;;
583;SDS011;27024;54.068;12.116;2023-03-14T01:35:10;3.22;;;1.45;;
583;SDS011;27024;54.068;12.116;2023-03-14T01:37:36;3.42;;;1.10;;
583;SDS011;27024;54.068;12.116;2023-03-14T01:40:03;3.45;;;1.35;;
583;SDS011;27024;54.068;12.116;2023-03-14T01:42:32;4.75;;;1.33;;
583;SDS011;27024;54.068;12.116;2023-03-14T01:44:59;3.92;;;1.27;;
583;SDS011;27024;54.068;12.116;2023-03-14T01:47:28;4.05;;;1.25;;
583;SDS011;27024;54.068;12.116;2023-03-14T01:50:02;5.75;;;1.60;;
583;SDS011;27024;54.068;12.116;2023-03-14T01:52:34;5.60;;;1.85;;
583;SDS011;27024;54.068;12.116;2023-03-14T01:55:30;5.90;;;1.30;;
583;SDS011;27024;54.068;12.116;2023-03-14T01:57:56;4.85;;;1.48;;
583;SDS011;27024;54.068;12.116;2023-03-14T02:00:27;6.68;;;1.80;;
583;SDS011;27024;54.068;12.116;2023-03-14T02:03:05;3.78;;;1.38;;
583;SDS011;27024;54.068;12.116;2023-03-14T02:05:38;6.78;;;1.42;;
583;SDS011;27024;54.068;12.116;2023-03-14T02:08:07;3.92;;;1.25;;
583;SDS011;27024;54.068;12.116;2023-03-14T02:10:39;4.40;;;1.20;;
583;SDS011;27024;54.068;12.116;2023-03-14T02:13:09;3.33;;;1.40;;
583;SDS011;27024;54.068;12.116;2023-03-14T02:15:37;7.30;;;1.58;;
583;SDS011;27024;54.068;12.116;2023-03-14T02:18:05;3.78;;;1.30;;
583;SDS011;27024;54.068;12.116;2023-03-14T02:20:34;5.13;;;1.48;;
583;SDS011;27024;54.068;12.116;2023-03-14T02:23:09;3.78;;;1.50;;
583;SDS011;27024;54.068;12.116;2023-03-14T02:25:43;3.92;;;1.40;;
583;SDS011;27024;54.068;12.116;2023-03-14T02:28:17;4.07;;;1.63;;
583;SDS011;27024;54.068;12.116;2023-03-14T02:30:44;3.60;;;1.38;;
583;SDS011;27024;54.068;12.116;2023-03-14T02:33:12;4.18;;;1.30;;
583;SDS011;27024;54.068;12.116;2023-03-14T02:35:46;3.95;;;1.35;;
583;SDS011;27024;54.068;12.116;2023-03-14T02:38:20;4.90;;;1.60;;
583;SDS011;27024;54.068;12.116;2023-03-14T02:40:54;5.22;;;1.80;;
583;SDS011;27024;54.068;12.116;2023-03-14T02:43:20;6.07;;;1.30;;
583;SDS011;27024;54.068;12.116;2023-03-14T02:45:48;4.70;;;1.27;;
583;SDS011;27024;54.068;12.116;2023-03-14T02:51:11;4.90;;;1.63;;
583;SDS011;27024;54.068;12.116;2023-03-14T02:53:39;5.10;;;1.67;;
583;SDS011;27024;54.068;12.116;2023-03-14T02:56:08;5.05;;;1.30;;
583;SDS011;27024;54.068;12.116;2023-03-14T02:58:36;4.95;;;1.40;;
583;SDS011;27024;54.068;12.116;2023-03-14T03:01:03;3.83;;;1.42;;
583;SDS011;27024;54.068;12.116;2023-03-14T03:03:30;4.65;;;1.60;;
583;SDS011;27024;54.068;12.116;2023-03-14T03:05:57;6.28;;;2.00;;
583;SDS011;27024;54.068;12.116;2023-03-14T03:08:25;6.13;;;1.77;;
583;SDS011;27024;54.068;12.116;2023-03-14T03:10:53;4.07;;;1.52;;
583;SDS011;27024;54.068;12.116;2023-03-14T03:13:20;12.27;;;2.13;;
583;SDS011;27024;54.068;12.116;2023-03-14T03:15:47;4.95;;;1.50;;
583;SDS011;27024;54.068;12.116;2023-03-14T03:18:13;6.57;;;1.77;;
583;SDS011;27024;54.068;12.116;2023-03-14T03:20:41;6.82;;;1.65;;
583;SDS011;27024;54.068;12.116;2023-03-14T03:23:07;7.13;;;1.92;;
583;SDS011;27024;54.068;12.116;2023-03-14T03:25:34;5.97;;;1.50;;
583;SDS011;27024;54.068;12.116;2023-03-14T03:28:01;8.07;;;1.92;;
583;SDS011;27024;54.068;12.116;2023-03-14T03:30:36;8.07;;;1.38;;
583;SDS011;27024;54.068;12.116;2023-03-14T03:33:04;14.35;;;1.73;;
583;SDS011;27024;54.068;12.116;2023-03-14T03:35:31;6.47;;;1.70;;
583;SDS011;27024;54.068;12.116;2023-03-14T03:37:59;7.25;;;1.38;;
583;SDS011;27024;54.068;12.116;2023-03-14T03:40:26;6.57;;;1.48;;
583;SDS011;27024;54.068;12.116;2023-03-14T03:42:53;3.33;;;1.33;;
583;SDS011;27024;54.068;12.116;2023-03-14T03:45:19;6.43;;;1.30;;
583;SDS011;27024;54.068;12.116;2023-03-14T03:47:46;5.55;;;1.42;;
583;SDS011;27024;54.068;12.116;2023-03-14T03:50:13;7.13;;;1.40;;
583;SDS011;27024;54.068;12.116;2023-03-14T03:52:40;6.88;;;1.23;;
583;SDS011;27024;54.068;12.116;2023-03-14T03:55:07;8.40;;;2.03;;
583;SDS011;27024;54.068;12.116;2023-03-14T03:57:34;9.32;;;1.25;;
583;SDS011;27024;54.068;12.116;2023-03-14T04:00:02;6.47;;;1.48;;
583;SDS011;27024;54.068;12.116;2023-03-14T04:02:31;5.65;;;1.42;;
583;SDS011;27024;54.068;12.116;2023-03-14T04:04:58;7.63;;;1.80;;
583;SDS011;27024;54.068;12.116;2023-03-14T04:07:25;6.65;;;1.70;;
583;SDS011;27024;54.068;12.116;2023-03-14T04:09:52;4.60;;;1.67;;
583;SDS011;27024;54.068;12.116;2023-03-14T04:12:18;9.45;;;1.67;;
583;SDS011;27024;54.068;12.116;2023-03-14T04:14:45;8.07;;;1.55;;
583;SDS011;27024;54.068;12.116;2023-03-14T04:17:12;5.03;;;1.45;;
583;SDS011;27024;54.068;12.116;2023-03-14T04:19:39;7.07;;;1.52;;
583;SDS011;27024;54.068;12.116;2023-03-14T04:22:06;7.50;;;1.83;;
583;SDS011;27024;54.068;12.116;2023-03-14T04:24:32;7.38;;;1.67;;
583;SDS011;27024;54.068;12.116;2023-03-14T04:26:59;6.68;;;1.70;;
583;SDS011;27024;54.068;12.116;2023-03-14T04:29:26;4.90;;;1.30;;
583;SDS011;27024;54.068;12.116;2023-03-14T04:31:53;4.60;;;1.50;;
583;SDS011;27024;54.068;12.116;2023-03-14T04:34:20;4.30;;;1.60;;
583;SDS011;27024;54.068;12.116;2023-03-14T04:36:46;7.72;;;1.60;;
583;SDS011;27024;54.068;12.116;2023-03-14T04:39:13;3.40;;;1.40;;
583;SDS011;27024;54.068;12.116;2023-03-14T04:41:40;6.70;;;1.90;;
583;SDS011;27024;54.068;12.116;2023-03-14T04:44:06;8.50;;;1.70;;
583;SDS011;27024;54.068;12.116;2023-03-14T04:46:33;6.70;;;1.65;;
583;SDS011;27024;54.068;12.116;2023-03-14T04:49:00;7.57;;;1.60;;
583;SDS011;27024;54.068;12.116;2023-03-14T04:51:27;5.80;;;1.60;;
583;SDS011;27024;54.068;12.116;2023-03-14T04:53:54;4.53;;;1.45;;
583;SDS011;27024;54.068;12.116;2023-03-14T04:56:21;6.07;;;1.58;;
583;SDS011;27024;54.068;12.116;2023-03-14T04:58:48;8.52;;;1.80;;
583;SDS011;27024;54.068;12.116;2023-03-14T05:01:15;4.15;;;1.40;;
583;SDS011;27024;54.068;12.116;2023-03-14T05:03:42;7.80;;;1.65;;
583;SDS011;27024;54.068;12.116;2023-03-14T05:06:08;6.15;;;1.65;;
583;SDS011;27024;54.068;12.116;2023-03-14T05:08:35;5.20;;;1.50;;
583;SDS011;27024;54.068;12.116;2023-03-14T05:11:02;7.00;;;1.55;;
583;SDS011;27024;54.068;12.116;2023-03-14T05:13:29;5.22;;;1.25;;
583;SDS011;27024;54.068;12.116;2023-03-14T05:16:03;6.93;;;1.40;;
583;SDS011;27024;54.068;12.116;2023-03-14T05:18:34;5.80;;;1.40;;
583;SDS011;27024;54.068;12.116;2023-03-14T05:21:01;4.75;;;1.75;;
583;SDS011;27024;54.068;12.116;2023-03-14T05:23:29;5.13;;;1.05;;
583;SDS011;27024;54.068;12.116;2023-03-14T05:25:56;5.05;;;1.33;;
583;SDS011;27024;54.068;12.116;2023-03-14T05:28:23;4.00;;;1.30;;
583;SDS011;27024;54.068;12.116;2023-03-14T05:30:50;3.95;;;1.60;;
583;SDS011;27024;54.068;12.116;2023-03-14T05:33:17;5.20;;;1.25;;
583;SDS011;27024;54.068;12.116;2023-03-14T05:35:44;4.22;;;1.40;;
583;SDS011;27024;54.068;12.116;2023-03-14T05:38:10;4.55;;;1.35;;
583;SDS011;27024;54.068;12.116;2023-03-14T05:40:37;4.53;;;1.27;;
583;SDS011;27024;54.068;12.116;2023-03-14T05:43:04;5.10;;;1.25;;
583;SDS011;27024;54.068;12.116;2023-03-14T05:45:31;7.13;;;1.60;;
583;SDS011;27024;54.068;12.116;2023-03-14T05:48:00;5.90;;;1.40;;
583;SDS011;27024;54.068;12.116;2023-03-14T05:50:27;3.78;;;1.15;;
583;SDS011;27024;54.068;12.116;2023-03-14T05:52:54;3.75;;;1.30;;
583;SDS011;27024;54.068;12.116;2023-03-14T05:55:21;5.05;;;1.33;;
583;SDS011;27024;54.068;12.116;2023-03-14T05:57:48;6.13;;;1.40;;
583;SDS011;27024;54.068;12.116;2023-03-14T06:00:15;5.28;;;1.50;;
583;SDS011;27024;54.068;12.116;2023-03-14T06:02:42;6.72;;;1.52;;
583;SDS011;27024;54.068;12.116;2023-03-14T06:05:08;5.35;;;1.45;;
583;SDS011;27024;54.068;12.116;2023-03-14T06:07:35;5.78;;;1.60;;
583;SDS011;27024;54.068;12.116;2023-03-14T06:10:02;5.20;;;1.25;;
583;SDS011;27024;54.068;12.116;2023-03-14T06:12:29;5.07;;;1.40;;
583;SDS011;27024;54.068;12.116;2023-03-14T06:14:56;6.25;;;1.05;;
583;SDS011;27024;54.068;12.116;2023-03-14T06:17:23;4.72;;;1.27;;
583;SDS011;27024;54.068;12.116;2023-03-14T06:19:50;4.07;;;1.25;;
583;SDS011;27024;54.068;12.116;2023-03-14T06:22:17;4.22;;;1.20;;
583;SDS011;27024;54.068;12.116;2023-03-14T06:24:43;6.68;;;1.63;;
583;SDS011;27024;54.068;12.116;2023-03-14T06:27:10;6.18;;;1.42;;
583;SDS011;27024;54.068;12.116;2023-03-14T06:29:37;4.82;;;1.10;;
583;SDS011;27024;54.068;12.116;2023-03-14T06:32:04;4.38;;;1.17;;
583;SDS011;27024;54.068;12.116;2023-03-14T06:34:31;4.72;;;1.13;;
583;SDS011;27024;54.068;12.116;2023-03-14T06:36:58;3.70;;;0.88;;
583;SDS011;27024;54.068;12.116;2023-03-14T06:39:25;4.85;;;1.25;;
583;SDS011;27024;54.068;12.116;2023-03-14T06:41:51;6.93;;;1.33;;
583;SDS011;27024;54.068;12.116;2023-03-14T06:44:18;4.95;;;1.27;;
583;SDS011;27024;54.068;12.116;2023-03-14T06:46:45;5.28;;;1.10;;
583;SDS011;27024;54.068;12.116;2023-03-14T06:49:12;7.78;;;1.55;;
583;SDS011;27024;54.068;12.116;2023-03-14T06:51:39;3.13;;;0.90;;
583;SDS011;27024;54.068;12.116;2023-03-14T06:54:05;4.53;;;0.98;;
583;SDS011;27024;54.068;12.116;2023-03-14T06:56:33;3.10;;;0.90;;
583;SDS011;27024;54.068;12.116;2023-03-14T06:58:59;4.78;;;1.08;;
583;SDS011;27024;54.068;12.116;2023-03-14T07:01:27;4.32;;;1.13;;
583;SDS011;27024;54.068;12.116;2023-03-14T07:03:56;6.72;;;0.98;;
583;SDS011;27024;54.068;12.116;2023-03-14T07:06:23;4.60;;;1.27;;
583;SDS011;27024;54.068;12.116;2023-03-14T07:08:51;3.22;;;0.80;;
583;SDS011;27024;54.068;12.116;2023-03-14T07:11:18;4.13;;;1.00;;
583;SDS011;27024;54.068;12.116;2023-03-14T07:13:44;3.78;;;0.70;;
583;SDS011;27024;54.068;12.116;2023-03-14T07:16:11;4.95;;;0.75;;
583;SDS011;27024;54.068;12.116;2023-03-14T07:18:38;5.53;;;1.00;;
583;SDS011;27024;54.068;12.116;2023-03-14T07:21:06;3.55;;;1.00;;
583;SDS011;27024;54.068;12.116;2023-03-14T07:23:33;6.22;;;0.93;;
583;SDS011;27024;54.068;12.116;2023-03-14T07:26:00;4.13;;;0.88;;
583;SDS011;27024;54.068;12.116;2023-03-14T07:28:28;6.90;;;0.95;;
583;SDS011;27024;54.068;12.116;2023-03-14T07:30:55;4.43;;;0.80;;
583;SDS011;27024;54.068;12.116;2023-03-14T07:33:22;3.60;;;1.05;;
583;SDS011;27024;54.068;12.116;2023-03-14T07:35:49;3.85;;;0.75;;
583;SDS011;27024;54.068;12.116;2023-03-14T07:38:16;5.60;;;0.95;;
583;SDS011;27024;54.068;12.116;2023-03-14T07:40:43;4.03;;;0.63;;
583;SDS011;27024;54.068;12.116;2023-03-14T07:43:10;3.05;;;0.60;;
583;SDS011;27024;54.068;12.116;2023-03-14T07:45:37;4.72;;;0.90;;
583;SDS011;27024;54.068;12.116;2023-03-14T07:50:36;3.65;;;0.82;;
583;SDS011;27024;54.068;12.116;2023-03-14T07:53:03;5.05;;;0.70;;
583;SDS011;27024;54.068;12.116;2023-03-14T07:55:29;3.30;;;0.77;;
583;SDS011;27024;54.068;12.116;2023-03-14T07:57:56;3.90;;;0.65;;
583;SDS011;27024;54.068;12.116;2023-03-14T08:00:23;2.65;;;0.93;;
583;SDS011;27024;54.068;12.116;2023-03-14T08:02:50;4.97;;;1.17;;
583;SDS011;27024;54.068;12.116;2023-03-14T08:05:19;5.45;;;0.85;;
583;SDS011;27024;54.068;12.116;2023-03-14T08:07:46;3.47;;;0.82;;
583;SDS011;27024;54.068;12.116;2023-03-14T08:10:13;3.45;;;0.90;;
583;SDS011;27024;54.068;12.116;2023-03-14T08:12:51;4.13;;;0.80;;
583;SDS011;27024;54.068;12.116;2023-03-14T08:15:21;4.57;;;1.02;;
583;SDS011;27024;54.068;12.116;2023-03-14T08:17:49;3.92;;;0.80;;
583;SDS011;27024;54.068;12.116;2023-03-14T08:20:17;3.13;;;1.02;;
583;SDS011;27024;54.068;12.116;2023-03-14T08:22:44;4.38;;;1.25;;
583;SDS011;27024;54.068;12.116;2023-03-14T08:25:11;4.07;;;0.85;;
583;SDS011;27024;54.068;12.116;2023-03-14T08:27:38;3.67;;;0.80;;
583;SDS011;27024;54.068;12.116;2023-03-14T08:30:06;4.10;;;1.17;;
583;SDS011;27024;54.068;12.116;2023-03-14T08:32:34;4.90;;;1.20;;
583;SDS011;27024;54.068;12.116;2023-03-14T08:35:01;4.07;;;0.80;;
583;SDS011;27024;54.068;12.116;2023-03-14T08:37:28;3.47;;;0.73;;
583;SDS011;27024;54.068;12.116;2023-03-14T08:39:55;5.57;;;1.20;;
583;SDS011;27024;54.068;12.116;2023-03-14T08:42:21;4.70;;;0.73;;
583;SDS011;27024;54.068;12.116;2023-03-14T08:44:48;4.40;;;1.00;;
583;SDS011;27024;54.068;12.116;2023-03-14T08:47:16;3.95;;;0.82;;
583;SDS011;27024;54.068;12.116;2023-03-14T08:49:43;5.43;;;1.30;;
583;SDS011;27024;54.068;12.116;2023-03-14T08:52:10;5.65;;;0.90;;
583;SDS011;27024;54.068;12.116;2023-03-14T08:54:37;3.13;;;0.88;;
583;SDS011;27024;54.068;12.116;2023-03-14T08:57:04;3.38;;;0.90;;
583;SDS011;27024;54.068;12.116;2023-03-14T08:59:31;3.05;;;0.90;;
583;SDS011;27024;54.068;12.116;2023-03-14T09:01:58;5.05;;;0.90;;
583;SDS011;27024;54.068;12.116;2023-03-14T09:04:25;4.93;;;1.25;;
583;SDS011;27024;54.068;12.116;2023-03-14T09:06:52;3.47;;;1.05;;
583;SDS011;27024;54.068;12.116;2023-03-14T09:09:19;4.00;;;1.10;;
583;SDS011;27024;54.068;12.116;2023-03-14T09:11:46;4.25;;;1.40;;
583;SDS011;27024;54.068;12.116;2023-03-14T09:14:12;3.92;;;1.33;;
583;SDS011;27024;54.068;12.116;2023-03-14T09:16:40;3.78;;;0.90;;
583;SDS011;27024;54.068;12.116;2023-03-14T09:19:07;6.82;;;1.02;;
583;SDS011;27024;54.068;12.116;2023-03-14T09:21:33;2.70;;;0.95;;
583;SDS011;27024;54.068;12.116;2023-03-14T09:24:00;5.80;;;0.90;;
583;SDS011;27024;54.068;12.116;2023-03-14T09:26:27;3.33;;;0.90;;
583;SDS011;27024;54.068;12.116;2023-03-14T09:28:54;3.83;;;0.88;;
583;SDS011;27024;54.068;12.116;2023-03-14T09:31:23;3.72;;;0.88;;
583;SDS011;27024;54.068;12.116;2023-03-14T09:33:50;5.65;;;0.90;;
583;SDS011;27024;54.068;12.116;2023-03-14T09:36:17;7.13;;;1.00;;
583;SDS011;27024;54.068;12.116;2023-03-14T09:38:44;3.50;;;0.73;;
583;SDS011;27024;54.068;12.116;2023-03-14T09:41:30;5.00;;;0.98;;
583;SDS011;27024;54.068;12.116;2023-03-14T09:44:02;5.13;;;0.90;;
583;SDS011;27024;54.068;12.116;2023-03-14T09:46:35;4.10;;;0.82;;
583;SDS011;27024;54.068;12.116;2023-03-14T09:49:09;2.85;;;0.60;;
583;SDS011;27024;54.068;12.116;2023-03-14T09:51:50;1.70;;;0.60;;
583;SDS011;27024;54.068;12.116;2023-03-14T09:55:06;3.03;;;0.52;;
583;SDS011;27024;54.068;12.116;2023-03-14T09:57:20;3.90;;;0.50;;
583;SDS011;27024;54.068;12.116;2023-03-14T09:59:51;3.75;;;0.70;;
583;SDS011;27024;54.068;12.116;2023-03-14T10:02:27;5.28;;;0.70;;
583;SDS011;27024;54.068;12.116;2023-03-14T10:05:00;3.03;;;0.70;;
583;SDS011;27024;54.068;12.116;2023-03-14T10:07:32;2.88;;;0.50;;
583;SDS011;27024;54.068;12.116;2023-03-14T10:10:00;5.28;;;0.70;;
583;SDS011;27024;54.068;12.116;2023-03-14T10:12:31;3.40;;;0.60;;
583;SDS011;27024;54.068;12.116;2023-03-14T10:15:02;3.22;;;0.75;;
583;SDS011;27024;54.068;12.116;2023-03-14T10:17:43;6.70;;;0.95;;
583;SDS011;27024;54.068;12.116;2023-03-14T10:20:32;8.52;;;0.93;;
583;SDS011;27024;54.068;12.116;2023-03-14T10:23:16;3.80;;;0.90;;
583;SDS011;27024;54.068;12.116;2023-03-14T10:28:30;4.05;;;1.35;;
583;SDS011;27024;54.068;12.116;2023-03-14T10:30:59;4.65;;;1.00;;
583;SDS011;27024;54.068;12.116;2023-03-14T10:33:28;3.47;;;1.15;;
583;SDS011;27024;54.068;12.116;2023-03-14T10:36:01;6.35;;;1.40;;
583;SDS011;27024;54.068;12.116;2023-03-14T10:38:30;2.72;;;0.93;;
583;SDS011;27024;54.068;12.116;2023-03-14T10:40:59;4.35;;;0.95;;
583;SDS011;27024;54.068;12.116;2023-03-14T10:43:33;3.58;;;0.90;;
583;SDS011;27024;54.068;12.116;2023-03-14T10:46:06;4.35;;;1.35;;
583;SDS011;27024;54.068;12.116;2023-03-14T10:48:36;3.90;;;1.20;;
583;SDS011;27024;54.068;12.116;2023-03-14T10:53:44;4.47;;;1.10;;
583;SDS011;27024;54.068;12.116;2023-03-14T10:56:17;3.67;;;1.30;;
583;SDS011;27024;54.068;12.116;2023-03-14T10:58:47;5.30;;;1.35;;
583;SDS011;27024;54.068;12.116;2023-03-14T11:17:56;7.65;;;1.70;;
583;SDS011;27024;54.068;12.116;2023-03-14T11:20:52;5.80;;;1.40;;
583;SDS011;27024;54.068;12.116;2023-03-14T11:26:38;4.60;;;1.40;;
583;SDS011;27024;54.068;12.116;2023-03-14T11:31:55;2.15;;;0.45;;
583;SDS011;27024;54.068;12.116;2023-03-14T11:34:40;1.75;;;0.60;;
583;SDS011;27024;54.068;12.116;2023-03-14T11:37:24;4.38;;;0.82;;
583;SDS011;27024;54.068;12.116;2023-03-14T11:40:08;5.03;;;0.70;;
583;SDS011;27024;54.068;12.116;2023-03-14T11:42:37;3.85;;;0.40;;
583;SDS011;27024;54.068;12.116;2023-03-14T11:45:12;3.55;;;0.30;;
583;SDS011;27024;54.068;12.116;2023-03-14T11:47:46;6.65;;;0.60;;
583;SDS011;27024;54.068;12.116;2023-03-14T11:50:39;4.07;;;0.68;;
583;SDS011;27024;54.068;12.116;2023-03-14T11:53:17;4.45;;;0.50;;
583;SDS011;27024;54.068;12.116;2023-03-14T11:55:48;3.63;;;0.40;;
583;SDS011;27024;54.068;12.116;2023-03-14T11:58:23;3.25;;;0.40;;
583;SDS011;27024;54.068;12.116;2023-03-14T12:00:54;4.45;;;0.43;;
583;SDS011;27024;54.068;12.116;2023-03-14T12:03:31;9.63;;;2.20;;
583;SDS011;27024;54.068;12.116;2023-03-14T12:08:55;4.40;;;0.35;;
583;SDS011;27024;54.068;12.116;2023-03-14T12:16:55;4.65;;;0.60;;
583;SDS011;27024;54.068;12.116;2023-03-14T12:19:36;5.20;;;0.68;;
583;SDS011;27024;54.068;12.116;2023-03-14T12:24:33;5.07;;;0.30;;
583;SDS011;27024;54.068;12.116;2023-03-14T12:27:03;2.30;;;0.25;;
583;SDS011;27024;54.068;12.116;2023-03-14T12:29:32;2.45;;;0.20;;
583;SDS011;27024;54.068;12.116;2023-03-14T12:32:21;4.70;;;0.68;;
583;SDS011;27024;54.068;12.116;2023-03-14T12:34:50;2.28;;;0.40;;
583;SDS011;27024;54.068;12.116;2023-03-14T12:37:19;2.30;;;0.20;;
583;SDS011;27024;54.068;12.116;2023-03-14T12:47:53;2.17;;;0.30;;
583;SDS011;27024;54.068;12.116;2023-03-14T12:50:26;8.45;;;0.40;;
583;SDS011;27024;54.068;12.116;2023-03-14T12:55:39;8.77;;;0.60;;
583;SDS011;27024;54.068;12.116;2023-03-14T13:00:50;4.60;;;0.40;;
583;SDS011;27024;54.068;12.116;2023-03-14T13:03:23;5.10;;;0.88;;
583;SDS011;27024;54.068;12.116;2023-03-14T13:05:56;5.78;;;0.43;;
583;SDS011;27024;54.068;12.116;2023-03-14T13:08:44;4.32;;;0.45;;
583;SDS011;27024;54.068;12.116;2023-03-14T13:11:18;5.93;;;0.35;;
583;SDS011;27024;54.068;12.116;2023-03-14T13:13:51;8.80;;;0.75;;
583;SDS011;27024;54.068;12.116;2023-03-14T13:16:23;6.03;;;0.60;;
583;SDS011;27024;54.068;12.116;2023-03-14T13:18:50;6.22;;;0.32;;
583;SDS011;27024;54.068;12.116;2023-03-14T13:21:45;3.85;;;0.52;;
583;SDS011;27024;54.068;12.116;2023-03-14T13:24:23;3.42;;;0.40;;
583;SDS011;27024;54.068;12.116;2023-03-14T13:26:55;3.55;;;0.32;;
583;SDS011;27024;54.068;12.116;2023-03-14T13:29:23;4.63;;;0.47;;
583;SDS011;27024;54.068;12.116;2023-03-14T13:31:53;3.40;;;0.47;;
583;SDS011;27024;54.068;12.116;2023-03-14T13:34:32;3.95;;;0.60;;
583;SDS011;27024;54.068;12.116;2023-03-14T13:37:00;7.25;;;0.88;;
583;SDS011;27024;54.068;12.116;2023-03-14T13:39:28;5.85;;;0.30;;
583;SDS011;27024;54.068;12.116;2023-03-14T13:41:59;7.07;;;0.60;;
583;SDS011;27024;54.068;12.116;2023-03-14T13:44:29;7.47;;;0.60;;
583;SDS011;27024;54.068;12.116;2023-03-14T13:47:00;5.75;;;0.47;;
583;SDS011;27024;54.068;12.116;2023-03-14T13:49:29;7.30;;;0.65;;
583;SDS011;27024;54.068;12.116;2023-03-14T13:52:02;5.57;;;0.52;;
583;SDS011;27024;54.068;12.116;2023-03-14T13:54:30;6.30;;;0.65;;
583;SDS011;27024;54.068;12.116;2023-03-14T13:56:59;9.93;;;0.65;;
583;SDS011;27024;54.068;12.116;2023-03-14T13:59:35;7.75;;;0.73;;
583;SDS011;27024;54.068;12.116;2023-03-14T14:02:09;5.07;;;0.73;;
583;SDS011;27024;54.068;12.116;2023-03-14T14:04:43;7.75;;;0.63;;
583;SDS011;27024;54.068;12.116;2023-03-14T14:07:13;11.50;;;0.88;;
583;SDS011;27024;54.068;12.116;2023-03-14T14:09:48;5.57;;;0.80;;
583;SDS011;27024;54.068;12.116;2023-03-14T14:12:19;7.35;;;0.55;;
583;SDS011;27024;54.068;12.116;2023-03-14T14:15:02;7.65;;;0.70;;
583;SDS011;27024;54.068;12.116;2023-03-14T14:20:07;6.53;;;0.85;;
583;SDS011;27024;54.068;12.116;2023-03-14T14:22:41;7.80;;;1.05;;
583;SDS011;27024;54.068;12.116;2023-03-14T14:25:12;7.95;;;0.90;;
583;SDS011;27024;54.068;12.116;2023-03-14T14:27:42;8.70;;;1.00;;
583;SDS011;27024;54.068;12.116;2023-03-14T14:32:43;9.32;;;0.85;;
583;SDS011;27024;54.068;12.116;2023-03-14T14:35:31;8.07;;;0.73;;
583;SDS011;27024;54.068;12.116;2023-03-14T14:38:00;7.47;;;0.70;;
583;SDS011;27024;54.068;12.116;2023-03-14T14:40:29;10.50;;;0.90;;
583;SDS011;27024;54.068;12.116;2023-03-14T14:43:03;8.95;;;0.60;;
583;SDS011;27024;54.068;12.116;2023-03-14T14:45:32;8.55;;;1.00;;
583;SDS011;27024;54.068;12.116;2023-03-14T14:50:32;7.93;;;0.95;;
583;SDS011;27024;54.068;12.116;2023-03-14T14:53:01;12.32;;;1.58;;
583;SDS011;27024;54.068;12.116;2023-03-14T14:55:34;15.75;;;0.80;;
583;SDS011;27024;54.068;12.116;2023-03-14T14:58:40;10.13;;;0.85;;
583;SDS011;27024;54.068;12.116;2023-03-14T15:01:25;8.85;;;0.98;;
583;SDS011;27024;54.068;12.116;2023-03-14T15:03:57;12.60;;;0.73;;
583;SDS011;27024;54.068;12.116;2023-03-14T15:06:24;9.73;;;0.88;;
583;SDS011;27024;54.068;12.116;2023-03-14T15:08:55;11.10;;;1.27;;
583;SDS011;27024;54.068;12.116;2023-03-14T15:11:22;7.20;;;0.70;;
583;SDS011;27024;54.068;12.116;2023-03-14T15:13:51;10.70;;;1.05;;
583;SDS011;27024;54.068;12.116;2023-03-14T15:16:23;8.43;;;0.70;;
583;SDS011;27024;54.068;12.116;2023-03-14T15:18:55;11.00;;;0.70;;
583;SDS011;27024;54.068;12.116;2023-03-14T15:21:31;12.23;;;1.00;;
583;SDS011;27024;54.068;12.116;2023-03-14T15:23:59;8.45;;;0.88;;
583;SDS011;27024;54.068;12.116;2023-03-14T15:26:26;5.53;;;0.60;;
583;SDS011;27024;54.068;12.116;2023-03-14T15:28:54;7.88;;;0.63;;
583;SDS011;27024;54.068;12.116;2023-03-14T15:31:20;8.88;;;0.90;;
583;SDS011;27024;54.068;12.116;2023-03-14T15:33:47;12.80;;;1.10;;
583;SDS011;27024;54.068;12.116;2023-03-14T15:36:22;7.30;;;0.70;;
583;SDS011;27024;54.068;12.116;2023-03-14T15:38:51;11.55;;;0.88;;
583;SDS011;27024;54.068;12.116;2023-03-14T15:41:20;9.13;;;0.88;;
583;SDS011;27024;54.068;12.116;2023-03-14T15:43:47;8.77;;;0.70;;
583;SDS011;27024;54.068;12.116;2023-03-14T15:46:15;8.30;;;0.73;;
583;SDS011;27024;54.068;12.116;2023-03-14T15:48:45;7.70;;;0.73;;
583;SDS011;27024;54.068;12.116;2023-03-14T15:51:12;5.90;;;0.70;;
583;SDS011;27024;54.068;12.116;2023-03-14T15:53:39;7.88;;;1.00;;
583;SDS011;27024;54.068;12.116;2023-03-14T15:56:07;14.68;;;0.90;;
583;SDS011;27024;54.068;12.116;2023-03-14T15:58:38;6.53;;;0.63;;
583;SDS011;27024;54.068;12.116;2023-03-14T16:01:07;10.13;;;0.60;;
583;SDS011;27024;54.068;12.116;2023-03-14T16:03:37;12.25;;;1.50;;
583;SDS011;27024;54.068;12.116;2023-03-14T16:06:04;7.57;;;0.82;;
583;SDS011;27024;54.068;12.116;2023-03-14T16:08:32;11.15;;;1.02;;
583;SDS011;27024;54.068;12.116;2023-03-14T16:10:59;10.60;;;1.05;;
583;SDS011;27024;54.068;12.116;2023-03-14T16:13:26;9.50;;;1.08;;
583;SDS011;27024;54.068;12.116;2023-03-14T16:16:00;10.07;;;1.00;;
583;SDS011;27024;54.068;12.116;2023-03-14T16:18:31;9.88;;;1.02;;
583;SDS011;27024;54.068;12.116;2023-03-14T16:21:00;11.30;;;0.82;;